Yatesville, Illinois
Current Conditions -  °F | °C
As of 9:15 PM on Saturday 22 Nov 2014 (Local Time) from KIJX Reporting Station
Overcast Overcast  
Wind Chill: 54°   Ceiling: 1100
Heat Index: 54°   Visibility: 10mi
Dew Point: 50°   Wind: 13mph
Humidity: 87%   Direction: 170°S
Pressure: 29.86"   Gusts: 17mph
Location:  39.9123°N, 90.0575°W
Report Text: KIJX 230315Z AUTO 17011G15KT 10SM OVC011 12/10 A2986 RMK AO2 T01230102
Loading
Personal Weather Stations






























Interactive Weather Map New forecast layout! Learn more

10-Day Weather Forecast

Advertisements
Track Severe Weather on mobile